createdAt,value
2023-05-16T00:06:50.115Z,16.28
2023-05-16T00:16:54.932Z,16.16
2023-05-16T00:26:58.537Z,16.15
2023-05-16T00:37:02.142Z,16.06
2023-05-16T00:47:06.010Z,15.97
2023-05-16T00:57:11.984Z,15.89
2023-05-16T01:07:16.089Z,15.99
2023-05-16T01:17:31.573Z,15.85
2023-05-16T01:27:36.231Z,15.81
2023-05-16T01:38:03.114Z,15.80
2023-05-16T01:48:22.542Z,15.76
2023-05-16T01:58:29.516Z,15.74
2023-05-16T02:08:35.388Z,15.75
2023-05-16T02:18:39.505Z,15.79
2023-05-16T02:28:43.088Z,15.73
2023-05-16T02:38:48.522Z,15.74
2023-05-16T02:48:52.985Z,15.72
2023-05-16T02:58:56.573Z,15.74
2023-05-16T03:09:00.278Z,15.76
2023-05-16T03:19:04.066Z,15.85
2023-05-16T03:29:07.808Z,15.90
2023-05-16T03:39:11.817Z,15.92
2023-05-16T03:49:17.859Z,15.88
2023-05-16T03:59:21.653Z,15.93
2023-05-16T04:09:25.252Z,16.01
2023-05-16T04:19:28.856Z,16.01
2023-05-16T04:29:33.359Z,16.08
2023-05-16T04:39:39.268Z,16.08
2023-05-16T04:49:43.792Z,16.08
2023-05-16T04:59:47.287Z,16.14
2023-05-16T05:09:53.750Z,16.09
2023-05-16T05:20:01.769Z,16.07
2023-05-16T05:30:10.379Z,16.35
2023-05-16T05:40:14.049Z,16.43
2023-05-16T05:50:17.761Z,16.45
2023-05-16T06:00:21.775Z,16.27
2023-05-16T06:10:27.658Z,16.08
2023-05-16T06:20:32.028Z,15.91
2023-05-16T06:30:35.652Z,15.65
2023-05-16T06:40:39.198Z,15.49
2023-05-16T06:50:42.902Z,15.28
2023-05-16T07:00:46.758Z,15.17
2023-05-16T07:10:50.461Z,14.84
2023-05-16T07:20:54.493Z,14.71
2023-05-16T07:31:00.677Z,15.37
2023-05-16T07:41:04.268Z,15.21
2023-05-16T07:51:07.870Z,14.85
2023-05-16T08:01:12.142Z,14.63
2023-05-16T08:11:17.822Z,14.63
2023-05-16T08:21:23.221Z,15.16
2023-05-16T08:31:30.085Z,15.62
2023-05-16T08:41:34.029Z,15.88
2023-05-16T08:51:38.603Z,16.23
2023-05-16T09:01:42.491Z,16.35
2023-05-16T09:11:49.169Z,16.41
2023-05-16T09:21:52.754Z,16.19
2023-05-16T09:32:09.214Z,16.32
2023-05-16T09:42:16.591Z,16.21
2023-05-16T09:52:20.639Z,15.96
2023-05-16T10:02:25.886Z,15.89
2023-05-16T10:12:32.337Z,15.82
2023-05-16T10:22:42.773Z,15.91
2023-05-16T10:32:47.918Z,16.61
2023-05-16T10:43:04.169Z,17.59
2023-05-16T10:53:29.003Z,18.05
2023-05-16T11:03:32.663Z,18.41
2023-05-16T11:13:36.299Z,18.97
2023-05-16T11:23:39.872Z,19.07
2023-05-16T11:33:44.157Z,19.20
2023-05-16T11:43:48.038Z,18.45
2023-05-16T11:53:52.407Z,19.09
2023-05-16T12:04:00.249Z,19.26
2023-05-16T12:14:07.817Z,18.73
2023-05-16T12:24:15.311Z,18.99
2023-05-16T12:34:21.881Z,19.88
2023-05-16T12:44:30.480Z,20.18
2023-05-16T12:54:35.548Z,20.14
2023-05-16T13:04:40.078Z,19.74
2023-05-16T13:14:44.063Z,19.55
2023-05-16T13:24:47.815Z,19.92
2023-05-16T13:34:53.336Z,19.63
2023-05-16T13:44:58.913Z,19.24
2023-05-16T13:55:02.768Z,18.72
2023-05-16T14:05:07.681Z,18.44
2023-05-16T14:15:13.048Z,18.85
2023-05-16T14:25:16.753Z,19.13
2023-05-16T14:35:20.467Z,20.00
2023-05-16T14:45:24.078Z,20.31
2023-05-16T14:55:29.505Z,20.80
2023-05-16T15:05:35.010Z,21.51
2023-05-16T15:15:41.381Z,21.66
2023-05-16T15:25:44.942Z,21.62
2023-05-16T15:35:48.815Z,20.96
2023-05-16T15:45:55.658Z,20.61
2023-05-16T15:55:59.446Z,20.43
2023-05-16T16:06:03.157Z,20.09
2023-05-16T16:16:09.333Z,19.74
2023-05-16T16:26:12.969Z,19.77
2023-05-16T16:36:19.342Z,19.71
2023-05-16T16:46:23.593Z,19.70
2023-05-16T16:56:30.336Z,20.41
2023-05-16T17:06:33.979Z,20.55
2023-05-16T17:16:41.015Z,20.37
2023-05-16T17:26:44.889Z,20.43
2023-05-16T17:36:48.502Z,19.72
2023-05-16T17:46:52.541Z,19.14
2023-05-16T17:56:56.242Z,19.09
2023-05-16T18:07:01.704Z,18.70
2023-05-16T18:17:05.646Z,18.38
2023-05-16T18:27:09.326Z,17.87
2023-05-16T18:37:12.910Z,17.47
2023-05-16T18:47:17.074Z,17.09
2023-05-16T18:57:22.438Z,16.46
2023-05-16T19:07:27.099Z,15.79
2023-05-16T19:17:30.928Z,15.26
2023-05-16T19:27:34.708Z,15.09
2023-05-16T19:37:38.374Z,14.88
2023-05-16T19:47:42.461Z,14.28
2023-05-16T19:57:48.045Z,14.21
2023-05-16T20:07:54.642Z,14.40
2023-05-16T20:18:04.144Z,14.35
2023-05-16T20:28:08.045Z,14.10
2023-05-16T20:38:11.670Z,13.93
2023-05-16T20:48:19.089Z,13.76
2023-05-16T20:58:24.088Z,13.58
2023-05-16T21:08:27.688Z,13.41
2023-05-16T21:18:33.398Z,13.32
2023-05-16T21:28:45.996Z,13.66
2023-05-16T21:38:57.312Z,13.95
2023-05-16T21:49:01.409Z,13.74
2023-05-16T21:59:07.108Z,13.57
2023-05-16T22:09:14.720Z,13.35
2023-05-16T22:19:18.376Z,13.34
2023-05-16T22:29:22.113Z,13.19
2023-05-16T22:39:26.166Z,13.09
2023-05-16T22:49:29.855Z,13.05
2023-05-16T22:59:34.373Z,12.97
2023-05-16T23:09:40.088Z,13.02
2023-05-16T23:19:43.653Z,13.07
2023-05-16T23:29:48.537Z,13.51
2023-05-16T23:39:52.093Z,13.86
2023-05-16T23:49:55.776Z,14.07
